sensor_id;sensor_type;location;lat;lon;timestamp;P1;durP1;ratioP1;P2;durP2;ratioP2
74523;SDS011;63074;44.696;10.358;2023-07-13T00:01:26;8.75;;;2.38;;
74523;SDS011;63074;44.696;10.358;2023-07-13T00:03:54;4.28;;;1.55;;
74523;SDS011;63074;44.696;10.358;2023-07-13T00:06:24;8.13;;;1.67;;
74523;SDS011;63074;44.696;10.358;2023-07-13T00:08:57;8.45;;;1.70;;
74523;SDS011;63074;44.696;10.358;2023-07-13T00:11:24;6.13;;;1.63;;
74523;SDS011;63074;44.696;10.358;2023-07-13T00:13:51;3.90;;;1.75;;
74523;SDS011;63074;44.696;10.358;2023-07-13T00:16:19;7.65;;;1.73;;
74523;SDS011;63074;44.696;10.358;2023-07-13T00:18:46;3.90;;;1.65;;
74523;SDS011;63074;44.696;10.358;2023-07-13T00:21:12;5.80;;;1.25;;
74523;SDS011;63074;44.696;10.358;2023-07-13T00:23:41;5.22;;;0.82;;
74523;SDS011;63074;44.696;10.358;2023-07-13T00:26:08;4.32;;;0.82;;
74523;SDS011;63074;44.696;10.358;2023-07-13T00:28:37;5.78;;;0.95;;
74523;SDS011;63074;44.696;10.358;2023-07-13T00:31:04;4.72;;;1.08;;
74523;SDS011;63074;44.696;10.358;2023-07-13T00:33:33;3.65;;;0.60;;
74523;SDS011;63074;44.696;10.358;2023-07-13T00:36:00;5.15;;;1.10;;
74523;SDS011;63074;44.696;10.358;2023-07-13T00:38:27;3.05;;;1.13;;
74523;SDS011;63074;44.696;10.358;2023-07-13T00:40:54;2.00;;;0.82;;
74523;SDS011;63074;44.696;10.358;2023-07-13T00:43:21;4.55;;;1.00;;
74523;SDS011;63074;44.696;10.358;2023-07-13T00:48:16;2.75;;;0.65;;
74523;SDS011;63074;44.696;10.358;2023-07-13T00:50:48;5.28;;;0.70;;
74523;SDS011;63074;44.696;10.358;2023-07-13T00:53:17;2.63;;;0.52;;
74523;SDS011;63074;44.696;10.358;2023-07-13T00:55:45;5.22;;;0.73;;
74523;SDS011;63074;44.696;10.358;2023-07-13T01:00:40;3.17;;;0.70;;
74523;SDS011;63074;44.696;10.358;2023-07-13T01:03:07;1.35;;;0.65;;
74523;SDS011;63074;44.696;10.358;2023-07-13T01:05:35;3.97;;;0.65;;
74523;SDS011;63074;44.696;10.358;2023-07-13T01:08:02;2.22;;;0.50;;
74523;SDS011;63074;44.696;10.358;2023-07-13T01:10:28;4.40;;;1.00;;
74523;SDS011;63074;44.696;10.358;2023-07-13T01:12:54;2.05;;;1.13;;
74523;SDS011;63074;44.696;10.358;2023-07-13T01:18:09;4.00;;;1.02;;
74523;SDS011;63074;44.696;10.358;2023-07-13T01:20:37;6.72;;;1.45;;
74523;SDS011;63074;44.696;10.358;2023-07-13T01:25:35;2.97;;;0.75;;
74523;SDS011;63074;44.696;10.358;2023-07-13T01:30:29;5.57;;;0.82;;
74523;SDS011;63074;44.696;10.358;2023-07-13T01:32:56;2.92;;;0.70;;
74523;SDS011;63074;44.696;10.358;2023-07-13T01:35:24;4.55;;;1.30;;
74523;SDS011;63074;44.696;10.358;2023-07-13T01:37:52;2.33;;;0.95;;
74523;SDS011;63074;44.696;10.358;2023-07-13T01:40:18;2.17;;;0.60;;
74523;SDS011;63074;44.696;10.358;2023-07-13T01:42:45;2.50;;;0.70;;
74523;SDS011;63074;44.696;10.358;2023-07-13T01:45:11;4.32;;;1.08;;
74523;SDS011;63074;44.696;10.358;2023-07-13T01:47:37;2.63;;;0.63;;
74523;SDS011;63074;44.696;10.358;2023-07-13T01:52:29;2.92;;;0.82;;
74523;SDS011;63074;44.696;10.358;2023-07-13T01:54:55;3.35;;;0.82;;
74523;SDS011;63074;44.696;10.358;2023-07-13T01:57:21;3.88;;;1.05;;
74523;SDS011;63074;44.696;10.358;2023-07-13T01:59:48;2.40;;;0.63;;
74523;SDS011;63074;44.696;10.358;2023-07-13T02:02:14;4.22;;;1.00;;
74523;SDS011;63074;44.696;10.358;2023-07-13T02:04:40;2.72;;;0.75;;
74523;SDS011;63074;44.696;10.358;2023-07-13T02:07:07;4.25;;;0.73;;
74523;SDS011;63074;44.696;10.358;2023-07-13T02:09:34;2.65;;;0.80;;
74523;SDS011;63074;44.696;10.358;2023-07-13T02:12:00;2.30;;;1.05;;
74523;SDS011;63074;44.696;10.358;2023-07-13T02:14:26;1.80;;;0.60;;
74523;SDS011;63074;44.696;10.358;2023-07-13T02:16:53;2.63;;;0.75;;
74523;SDS011;63074;44.696;10.358;2023-07-13T02:19:19;2.97;;;0.55;;
74523;SDS011;63074;44.696;10.358;2023-07-13T02:21:45;2.83;;;1.13;;
74523;SDS011;63074;44.696;10.358;2023-07-13T02:24:11;3.58;;;0.95;;
74523;SDS011;63074;44.696;10.358;2023-07-13T02:26:42;3.85;;;0.85;;
74523;SDS011;63074;44.696;10.358;2023-07-13T02:29:09;3.50;;;1.27;;
74523;SDS011;63074;44.696;10.358;2023-07-13T02:31:35;3.42;;;0.90;;
74523;SDS011;63074;44.696;10.358;2023-07-13T02:34:02;2.85;;;1.00;;
74523;SDS011;63074;44.696;10.358;2023-07-13T02:42:23;6.80;;;1.80;;
74523;SDS011;63074;44.696;10.358;2023-07-13T02:44:50;3.22;;;0.80;;
74523;SDS011;63074;44.696;10.358;2023-07-13T02:47:16;4.93;;;0.90;;
74523;SDS011;63074;44.696;10.358;2023-07-13T02:49:42;2.90;;;0.70;;
74523;SDS011;63074;44.696;10.358;2023-07-13T02:52:09;2.63;;;0.90;;
74523;SDS011;63074;44.696;10.358;2023-07-13T02:54:35;4.07;;;1.27;;
74523;SDS011;63074;44.696;10.358;2023-07-13T02:57:01;2.65;;;1.25;;
74523;SDS011;63074;44.696;10.358;2023-07-13T02:59:27;4.28;;;1.55;;
74523;SDS011;63074;44.696;10.358;2023-07-13T03:01:54;5.03;;;1.55;;
74523;SDS011;63074;44.696;10.358;2023-07-13T03:04:20;2.88;;;1.73;;
74523;SDS011;63074;44.696;10.358;2023-07-13T03:06:46;3.17;;;1.10;;
74523;SDS011;63074;44.696;10.358;2023-07-13T03:09:12;5.38;;;0.90;;
74523;SDS011;63074;44.696;10.358;2023-07-13T03:11:39;3.92;;;1.10;;
74523;SDS011;63074;44.696;10.358;2023-07-13T03:14:06;3.55;;;1.65;;
74523;SDS011;63074;44.696;10.358;2023-07-13T03:16:33;3.35;;;1.40;;
74523;SDS011;63074;44.696;10.358;2023-07-13T03:18:59;5.10;;;1.40;;
74523;SDS011;63074;44.696;10.358;2023-07-13T03:21:25;5.90;;;1.60;;
74523;SDS011;63074;44.696;10.358;2023-07-13T03:23:51;2.63;;;1.20;;
74523;SDS011;63074;44.696;10.358;2023-07-13T03:26:19;6.15;;;1.27;;
74523;SDS011;63074;44.696;10.358;2023-07-13T03:28:45;3.72;;;1.25;;
74523;SDS011;63074;44.696;10.358;2023-07-13T03:31:13;3.70;;;1.58;;
74523;SDS011;63074;44.696;10.358;2023-07-13T03:33:44;5.05;;;2.15;;
74523;SDS011;63074;44.696;10.358;2023-07-13T03:36:16;4.22;;;1.95;;
74523;SDS011;63074;44.696;10.358;2023-07-13T03:38:48;4.85;;;1.98;;
74523;SDS011;63074;44.696;10.358;2023-07-13T03:41:15;5.63;;;2.13;;
74523;SDS011;63074;44.696;10.358;2023-07-13T03:43:42;6.60;;;2.00;;
74523;SDS011;63074;44.696;10.358;2023-07-13T03:46:08;3.17;;;1.80;;
74523;SDS011;63074;44.696;10.358;2023-07-13T03:48:35;5.75;;;1.98;;
74523;SDS011;63074;44.696;10.358;2023-07-13T03:51:01;5.65;;;1.90;;
74523;SDS011;63074;44.696;10.358;2023-07-13T03:53:28;4.28;;;1.80;;
74523;SDS011;63074;44.696;10.358;2023-07-13T03:55:55;5.10;;;1.85;;
74523;SDS011;63074;44.696;10.358;2023-07-13T04:00:56;4.15;;;1.55;;
74523;SDS011;63074;44.696;10.358;2023-07-13T04:03:22;4.55;;;1.60;;
74523;SDS011;63074;44.696;10.358;2023-07-13T04:05:49;4.85;;;1.60;;
74523;SDS011;63074;44.696;10.358;2023-07-13T04:08:15;4.30;;;1.48;;
74523;SDS011;63074;44.696;10.358;2023-07-13T04:10:44;6.28;;;1.75;;
74523;SDS011;63074;44.696;10.358;2023-07-13T04:13:10;6.38;;;1.75;;
74523;SDS011;63074;44.696;10.358;2023-07-13T04:15:38;4.85;;;1.38;;
74523;SDS011;63074;44.696;10.358;2023-07-13T04:18:05;4.80;;;1.55;;
74523;SDS011;63074;44.696;10.358;2023-07-13T04:20:31;4.32;;;1.30;;
74523;SDS011;63074;44.696;10.358;2023-07-13T04:22:57;3.10;;;1.27;;
74523;SDS011;63074;44.696;10.358;2023-07-13T04:25:24;4.43;;;1.70;;
74523;SDS011;63074;44.696;10.358;2023-07-13T04:27:50;5.35;;;1.80;;
74523;SDS011;63074;44.696;10.358;2023-07-13T04:30:17;5.78;;;2.42;;
74523;SDS011;63074;44.696;10.358;2023-07-13T04:32:44;4.85;;;1.98;;
74523;SDS011;63074;44.696;10.358;2023-07-13T04:35:10;5.03;;;2.15;;
74523;SDS011;63074;44.696;10.358;2023-07-13T04:37:37;5.05;;;2.05;;
74523;SDS011;63074;44.696;10.358;2023-07-13T04:42:30;3.58;;;1.42;;
74523;SDS011;63074;44.696;10.358;2023-07-13T04:44:56;6.85;;;2.80;;
74523;SDS011;63074;44.696;10.358;2023-07-13T04:47:22;3.85;;;1.98;;
74523;SDS011;63074;44.696;10.358;2023-07-13T04:49:48;6.35;;;2.67;;
74523;SDS011;63074;44.696;10.358;2023-07-13T04:52:15;4.72;;;1.60;;
74523;SDS011;63074;44.696;10.358;2023-07-13T04:54:41;5.35;;;1.30;;
74523;SDS011;63074;44.696;10.358;2023-07-13T04:57:07;4.93;;;1.63;;
74523;SDS011;63074;44.696;10.358;2023-07-13T04:59:33;5.57;;;2.17;;
74523;SDS011;63074;44.696;10.358;2023-07-13T05:02:00;6.28;;;1.60;;
74523;SDS011;63074;44.696;10.358;2023-07-13T05:04:26;4.80;;;1.30;;
74523;SDS011;63074;44.696;10.358;2023-07-13T05:06:52;3.75;;;1.85;;
74523;SDS011;63074;44.696;10.358;2023-07-13T05:09:19;3.53;;;1.77;;
74523;SDS011;63074;44.696;10.358;2023-07-13T05:11:45;4.20;;;1.73;;
74523;SDS011;63074;44.696;10.358;2023-07-13T05:14:11;3.85;;;2.13;;
74523;SDS011;63074;44.696;10.358;2023-07-13T05:16:37;5.75;;;2.05;;
74523;SDS011;63074;44.696;10.358;2023-07-13T05:21:29;3.85;;;2.05;;
74523;SDS011;63074;44.696;10.358;2023-07-13T05:23:56;3.53;;;1.77;;
74523;SDS011;63074;44.696;10.358;2023-07-13T05:26:22;4.78;;;2.15;;
74523;SDS011;63074;44.696;10.358;2023-07-13T05:28:48;6.13;;;2.22;;
74523;SDS011;63074;44.696;10.358;2023-07-13T05:31:14;4.32;;;2.35;;
74523;SDS011;63074;44.696;10.358;2023-07-13T05:33:40;7.43;;;2.20;;
74523;SDS011;63074;44.696;10.358;2023-07-13T05:36:06;5.43;;;2.17;;
74523;SDS011;63074;44.696;10.358;2023-07-13T05:38:33;5.78;;;2.13;;
74523;SDS011;63074;44.696;10.358;2023-07-13T05:40:59;6.28;;;2.85;;
74523;SDS011;63074;44.696;10.358;2023-07-13T05:43:26;9.93;;;2.50;;
74523;SDS011;63074;44.696;10.358;2023-07-13T05:45:55;6.03;;;1.95;;
74523;SDS011;63074;44.696;10.358;2023-07-13T05:48:22;5.70;;;2.45;;
74523;SDS011;63074;44.696;10.358;2023-07-13T05:50:48;5.75;;;2.13;;
74523;SDS011;63074;44.696;10.358;2023-07-13T05:53:15;6.72;;;2.65;;
74523;SDS011;63074;44.696;10.358;2023-07-13T05:55:47;5.65;;;2.22;;
74523;SDS011;63074;44.696;10.358;2023-07-13T05:58:16;5.22;;;2.28;;
74523;SDS011;63074;44.696;10.358;2023-07-13T06:00:42;5.95;;;2.63;;
74523;SDS011;63074;44.696;10.358;2023-07-13T06:03:09;3.58;;;1.90;;
74523;SDS011;63074;44.696;10.358;2023-07-13T06:05:35;5.88;;;2.60;;
74523;SDS011;63074;44.696;10.358;2023-07-13T06:08:03;5.28;;;1.92;;
74523;SDS011;63074;44.696;10.358;2023-07-13T06:10:29;7.32;;;2.42;;
74523;SDS011;63074;44.696;10.358;2023-07-13T06:12:57;4.57;;;2.42;;
74523;SDS011;63074;44.696;10.358;2023-07-13T06:15:23;4.72;;;2.17;;
74523;SDS011;63074;44.696;10.358;2023-07-13T06:17:49;3.15;;;1.70;;
74523;SDS011;63074;44.696;10.358;2023-07-13T06:20:16;4.47;;;2.00;;
74523;SDS011;63074;44.696;10.358;2023-07-13T06:22:42;5.65;;;2.05;;
74523;SDS011;63074;44.696;10.358;2023-07-13T06:25:08;7.03;;;2.42;;
74523;SDS011;63074;44.696;10.358;2023-07-13T06:27:34;6.70;;;2.10;;
74523;SDS011;63074;44.696;10.358;2023-07-13T06:30:01;5.05;;;2.00;;
74523;SDS011;63074;44.696;10.358;2023-07-13T06:32:27;4.40;;;2.63;;
74523;SDS011;63074;44.696;10.358;2023-07-13T06:34:53;7.30;;;2.65;;
74523;SDS011;63074;44.696;10.358;2023-07-13T06:37:19;7.13;;;2.83;;
74523;SDS011;63074;44.696;10.358;2023-07-13T06:39:45;9.32;;;2.70;;
74523;SDS011;63074;44.696;10.358;2023-07-13T06:42:12;6.35;;;1.92;;
74523;SDS011;63074;44.696;10.358;2023-07-13T06:44:38;6.57;;;2.55;;
74523;SDS011;63074;44.696;10.358;2023-07-13T06:49:30;5.25;;;2.10;;
74523;SDS011;63074;44.696;10.358;2023-07-13T06:51:56;3.65;;;2.00;;
74523;SDS011;63074;44.696;10.358;2023-07-13T06:54:22;6.95;;;2.03;;
74523;SDS011;63074;44.696;10.358;2023-07-13T06:56:48;10.63;;;3.00;;
74523;SDS011;63074;44.696;10.358;2023-07-13T06:59:14;7.50;;;2.10;;
74523;SDS011;63074;44.696;10.358;2023-07-13T07:01:41;6.07;;;2.30;;
74523;SDS011;63074;44.696;10.358;2023-07-13T07:04:07;8.40;;;3.58;;
74523;SDS011;63074;44.696;10.358;2023-07-13T07:06:33;5.53;;;2.47;;
74523;SDS011;63074;44.696;10.358;2023-07-13T07:08:59;4.65;;;2.45;;
74523;SDS011;63074;44.696;10.358;2023-07-13T07:11:26;6.60;;;2.75;;
74523;SDS011;63074;44.696;10.358;2023-07-13T07:13:52;7.60;;;2.33;;
74523;SDS011;63074;44.696;10.358;2023-07-13T07:16:19;5.47;;;2.88;;
74523;SDS011;63074;44.696;10.358;2023-07-13T07:18:46;5.63;;;2.78;;
74523;SDS011;63074;44.696;10.358;2023-07-13T07:21:12;6.22;;;3.00;;
74523;SDS011;63074;44.696;10.358;2023-07-13T07:23:39;7.20;;;3.08;;
74523;SDS011;63074;44.696;10.358;2023-07-13T07:26:06;9.02;;;2.53;;
74523;SDS011;63074;44.696;10.358;2023-07-13T07:28:33;7.30;;;2.65;;
74523;SDS011;63074;44.696;10.358;2023-07-13T07:31:00;11.23;;;3.00;;
74523;SDS011;63074;44.696;10.358;2023-07-13T07:33:26;8.43;;;2.95;;
74523;SDS011;63074;44.696;10.358;2023-07-13T07:35:53;7.13;;;3.28;;
74523;SDS011;63074;44.696;10.358;2023-07-13T07:38:19;8.63;;;3.13;;
74523;SDS011;63074;44.696;10.358;2023-07-13T07:40:45;9.45;;;3.97;;
74523;SDS011;63074;44.696;10.358;2023-07-13T07:43:12;10.70;;;3.70;;
74523;SDS011;63074;44.696;10.358;2023-07-13T07:45:39;9.27;;;3.35;;
74523;SDS011;63074;44.696;10.358;2023-07-13T07:48:06;8.57;;;2.70;;
74523;SDS011;63074;44.696;10.358;2023-07-13T07:50:34;9.27;;;3.13;;
74523;SDS011;63074;44.696;10.358;2023-07-13T07:53:00;6.43;;;3.20;;
74523;SDS011;63074;44.696;10.358;2023-07-13T07:55:27;6.50;;;3.17;;
74523;SDS011;63074;44.696;10.358;2023-07-13T07:57:54;5.32;;;3.42;;
74523;SDS011;63074;44.696;10.358;2023-07-13T08:00:21;7.47;;;2.97;;
74523;SDS011;63074;44.696;10.358;2023-07-13T08:02:48;11.95;;;3.63;;
74523;SDS011;63074;44.696;10.358;2023-07-13T08:05:14;7.43;;;2.88;;
74523;SDS011;63074;44.696;10.358;2023-07-13T08:07:40;11.32;;;4.05;;
74523;SDS011;63074;44.696;10.358;2023-07-13T08:10:07;10.95;;;3.70;;
74523;SDS011;63074;44.696;10.358;2023-07-13T08:12:34;7.97;;;3.50;;
74523;SDS011;63074;44.696;10.358;2023-07-13T08:15:01;11.15;;;3.65;;
74523;SDS011;63074;44.696;10.358;2023-07-13T08:17:28;10.70;;;3.10;;
74523;SDS011;63074;44.696;10.358;2023-07-13T08:19:55;8.60;;;3.22;;
74523;SDS011;63074;44.696;10.358;2023-07-13T08:22:21;6.15;;;2.85;;
74523;SDS011;63074;44.696;10.358;2023-07-13T08:24:47;6.47;;;2.78;;
74523;SDS011;63074;44.696;10.358;2023-07-13T08:27:20;10.48;;;3.53;;
74523;SDS011;63074;44.696;10.358;2023-07-13T08:29:47;7.57;;;3.65;;
74523;SDS011;63074;44.696;10.358;2023-07-13T08:32:14;7.78;;;3.70;;
74523;SDS011;63074;44.696;10.358;2023-07-13T08:34:41;12.18;;;4.90;;
74523;SDS011;63074;44.696;10.358;2023-07-13T08:37:08;10.00;;;4.05;;
74523;SDS011;63074;44.696;10.358;2023-07-13T08:39:34;12.48;;;4.38;;
74523;SDS011;63074;44.696;10.358;2023-07-13T08:47:14;10.23;;;5.00;;
74523;SDS011;63074;44.696;10.358;2023-07-13T08:49:42;10.43;;;4.70;;
74523;SDS011;63074;44.696;10.358;2023-07-13T08:52:17;10.77;;;4.95;;
74523;SDS011;63074;44.696;10.358;2023-07-13T08:54:50;12.60;;;4.35;;
74523;SDS011;63074;44.696;10.358;2023-07-13T08:57:21;10.73;;;4.35;;
74523;SDS011;63074;44.696;10.358;2023-07-13T08:59:55;10.88;;;4.40;;
74523;SDS011;63074;44.696;10.358;2023-07-13T09:02:28;7.68;;;4.20;;
74523;SDS011;63074;44.696;10.358;2023-07-13T09:05:40;8.82;;;3.78;;
74523;SDS011;63074;44.696;10.358;2023-07-13T09:08:27;10.02;;;4.03;;
74523;SDS011;63074;44.696;10.358;2023-07-13T09:16:20;9.90;;;3.97;;
74523;SDS011;63074;44.696;10.358;2023-07-13T09:18:49;8.23;;;4.30;;
74523;SDS011;63074;44.696;10.358;2023-07-13T09:21:20;10.55;;;3.63;;
74523;SDS011;63074;44.696;10.358;2023-07-13T09:23:56;8.15;;;3.70;;
74523;SDS011;63074;44.696;10.358;2023-07-13T09:26:26;5.22;;;2.97;;
74523;SDS011;63074;44.696;10.358;2023-07-13T09:28:58;5.43;;;2.65;;
74523;SDS011;63074;44.696;10.358;2023-07-13T09:31:32;5.95;;;2.58;;
74523;SDS011;63074;44.696;10.358;2023-07-13T09:34:01;4.35;;;2.85;;
74523;SDS011;63074;44.696;10.358;2023-07-13T09:36:30;4.72;;;2.38;;
74523;SDS011;63074;44.696;10.358;2023-07-13T09:44:12;5.07;;;2.30;;
74523;SDS011;63074;44.696;10.358;2023-07-13T09:46:50;4.80;;;2.65;;
74523;SDS011;63074;44.696;10.358;2023-07-13T09:49:22;6.70;;;2.65;;
74523;SDS011;63074;44.696;10.358;2023-07-13T09:51:50;5.25;;;2.95;;
74523;SDS011;63074;44.696;10.358;2023-07-13T09:54:28;4.53;;;2.30;;
74523;SDS011;63074;44.696;10.358;2023-07-13T09:56:59;6.15;;;2.92;;
74523;SDS011;63074;44.696;10.358;2023-07-13T09:59:28;7.00;;;2.97;;
74523;SDS011;63074;44.696;10.358;2023-07-13T10:01:57;5.75;;;3.35;;
74523;SDS011;63074;44.696;10.358;2023-07-13T10:04:33;6.00;;;2.78;;
74523;SDS011;63074;44.696;10.358;2023-07-13T10:09:29;6.88;;;3.17;;
74523;SDS011;63074;44.696;10.358;2023-07-13T10:11:56;4.32;;;2.65;;
74523;SDS011;63074;44.696;10.358;2023-07-13T10:14:22;6.35;;;3.15;;
74523;SDS011;63074;44.696;10.358;2023-07-13T10:16:51;7.68;;;2.97;;
74523;SDS011;63074;44.696;10.358;2023-07-13T10:19:24;5.53;;;3.15;;
74523;SDS011;63074;44.696;10.358;2023-07-13T10:24:33;4.95;;;2.72;;
74523;SDS011;63074;44.696;10.358;2023-07-13T10:29:29;6.68;;;3.13;;
74523;SDS011;63074;44.696;10.358;2023-07-13T10:32:09;5.72;;;3.45;;
74523;SDS011;63074;44.696;10.358;2023-07-13T10:34:36;5.57;;;3.30;;
74523;SDS011;63074;44.696;10.358;2023-07-13T10:39:30;6.70;;;3.38;;
74523;SDS011;63074;44.696;10.358;2023-07-13T10:41:59;7.53;;;3.88;;
74523;SDS011;63074;44.696;10.358;2023-07-13T10:44:32;7.90;;;4.65;;
74523;SDS011;63074;44.696;10.358;2023-07-13T10:47:04;7.40;;;4.32;;
74523;SDS011;63074;44.696;10.358;2023-07-13T10:49:30;8.05;;;4.47;;
74523;SDS011;63074;44.696;10.358;2023-07-13T10:52:00;9.80;;;4.72;;
74523;SDS011;63074;44.696;10.358;2023-07-13T10:54:28;7.72;;;4.50;;
74523;SDS011;63074;44.696;10.358;2023-07-13T10:59:29;7.97;;;3.63;;
74523;SDS011;63074;44.696;10.358;2023-07-13T11:01:57;8.13;;;4.85;;
74523;SDS011;63074;44.696;10.358;2023-07-13T11:04:27;8.38;;;3.85;;
74523;SDS011;63074;44.696;10.358;2023-07-13T11:07:16;8.68;;;4.70;;
74523;SDS011;63074;44.696;10.358;2023-07-13T11:09:49;9.13;;;4.25;;
74523;SDS011;63074;44.696;10.358;2023-07-13T11:17:24;9.60;;;4.65;;
74523;SDS011;63074;44.696;10.358;2023-07-13T11:22:45;7.22;;;4.43;;
74523;SDS011;63074;44.696;10.358;2023-07-13T11:25:30;7.38;;;4.53;;
74523;SDS011;63074;44.696;10.358;2023-07-13T11:35:30;6.72;;;3.95;;
74523;SDS011;63074;44.696;10.358;2023-07-13T11:37:58;10.88;;;4.97;;
74523;SDS011;63074;44.696;10.358;2023-07-13T11:40:25;6.38;;;4.00;;
74523;SDS011;63074;44.696;10.358;2023-07-13T11:43:01;7.28;;;4.38;;
74523;SDS011;63074;44.696;10.358;2023-07-13T11:45:27;8.13;;;4.38;;
74523;SDS011;63074;44.696;10.358;2023-07-13T11:47:54;5.85;;;3.83;;
74523;SDS011;63074;44.696;10.358;2023-07-13T11:50:25;7.25;;;3.72;;
74523;SDS011;63074;44.696;10.358;2023-07-13T11:52:52;8.13;;;3.90;;
74523;SDS011;63074;44.696;10.358;2023-07-13T11:55:21;9.85;;;3.63;;
74523;SDS011;63074;44.696;10.358;2023-07-13T11:58:00;5.63;;;3.22;;
74523;SDS011;63074;44.696;10.358;2023-07-13T12:00:29;9.10;;;4.82;;
74523;SDS011;63074;44.696;10.358;2023-07-13T12:02:59;7.88;;;3.90;;
74523;SDS011;63074;44.696;10.358;2023-07-13T12:10:27;9.85;;;3.80;;
74523;SDS011;63074;44.696;10.358;2023-07-13T12:13:00;7.50;;;3.78;;
74523;SDS011;63074;44.696;10.358;2023-07-13T12:15:36;6.85;;;3.13;;
74523;SDS011;63074;44.696;10.358;2023-07-13T12:18:15;4.38;;;3.08;;
74523;SDS011;63074;44.696;10.358;2023-07-13T12:20:45;4.35;;;3.00;;
74523;SDS011;63074;44.696;10.358;2023-07-13T12:23:28;7.45;;;2.28;;
74523;SDS011;63074;44.696;10.358;2023-07-13T12:25:57;21.45;;;4.55;;
74523;SDS011;63074;44.696;10.358;2023-07-13T12:31:02;8.73;;;3.80;;
74523;SDS011;63074;44.696;10.358;2023-07-13T12:33:29;6.70;;;3.53;;
74523;SDS011;63074;44.696;10.358;2023-07-13T12:35:57;8.43;;;3.58;;
74523;SDS011;63074;44.696;10.358;2023-07-13T12:38:27;5.93;;;3.28;;
74523;SDS011;63074;44.696;10.358;2023-07-13T12:40:54;7.35;;;3.20;;
74523;SDS011;63074;44.696;10.358;2023-07-13T12:43:21;8.15;;;3.45;;
74523;SDS011;63074;44.696;10.358;2023-07-13T12:46:02;5.97;;;3.50;;
74523;SDS011;63074;44.696;10.358;2023-07-13T12:48:28;8.07;;;3.80;;
74523;SDS011;63074;44.696;10.358;2023-07-13T12:50:55;7.85;;;3.72;;
74523;SDS011;63074;44.696;10.358;2023-07-13T12:53:29;6.70;;;2.83;;
74523;SDS011;63074;44.696;10.358;2023-07-13T12:55:59;6.80;;;3.20;;
74523;SDS011;63074;44.696;10.358;2023-07-13T12:58:28;10.00;;;3.40;;
74523;SDS011;63074;44.696;10.358;2023-07-13T13:01:01;6.10;;;3.40;;
74523;SDS011;63074;44.696;10.358;2023-07-13T13:03:30;6.50;;;2.92;;
74523;SDS011;63074;44.696;10.358;2023-07-13T13:08:30;5.25;;;2.78;;
74523;SDS011;63074;44.696;10.358;2023-07-13T13:10:58;8.80;;;3.00;;
74523;SDS011;63074;44.696;10.358;2023-07-13T13:13:24;5.13;;;2.70;;
74523;SDS011;63074;44.696;10.358;2023-07-13T13:15:51;9.13;;;2.90;;
74523;SDS011;63074;44.696;10.358;2023-07-13T13:18:21;5.28;;;2.50;;
74523;SDS011;63074;44.696;10.358;2023-07-13T13:20:49;7.45;;;3.00;;
74523;SDS011;63074;44.696;10.358;2023-07-13T13:23:16;6.03;;;2.60;;
74523;SDS011;63074;44.696;10.358;2023-07-13T13:25:46;7.57;;;3.10;;
74523;SDS011;63074;44.696;10.358;2023-07-13T13:28:20;5.57;;;2.58;;
74523;SDS011;63074;44.696;10.358;2023-07-13T13:30:48;5.10;;;2.20;;
74523;SDS011;63074;44.696;10.358;2023-07-13T13:33:16;5.78;;;2.67;;
74523;SDS011;63074;44.696;10.358;2023-07-13T13:35:44;8.57;;;2.97;;
74523;SDS011;63074;44.696;10.358;2023-07-13T13:38:15;7.85;;;2.83;;
74523;SDS011;63074;44.696;10.358;2023-07-13T13:40:44;5.55;;;2.15;;
74523;SDS011;63074;44.696;10.358;2023-07-13T13:43:14;6.57;;;2.65;;
74523;SDS011;63074;44.696;10.358;2023-07-13T13:45:42;7.53;;;2.47;;
74523;SDS011;63074;44.696;10.358;2023-07-13T13:48:21;4.22;;;2.15;;
74523;SDS011;63074;44.696;10.358;2023-07-13T13:50:55;21.88;;;4.03;;
74523;SDS011;63074;44.696;10.358;2023-07-13T13:53:22;5.43;;;2.97;;
74523;SDS011;63074;44.696;10.358;2023-07-13T13:55:50;6.32;;;2.20;;
74523;SDS011;63074;44.696;10.358;2023-07-13T13:58:18;4.70;;;2.45;;
74523;SDS011;63074;44.696;10.358;2023-07-13T14:00:44;6.38;;;2.78;;
74523;SDS011;63074;44.696;10.358;2023-07-13T14:03:16;6.18;;;2.90;;
74523;SDS011;63074;44.696;10.358;2023-07-13T14:05:44;5.63;;;2.63;;
74523;SDS011;63074;44.696;10.358;2023-07-13T14:08:18;6.32;;;2.50;;
74523;SDS011;63074;44.696;10.358;2023-07-13T14:13:26;7.80;;;2.83;;
74523;SDS011;63074;44.696;10.358;2023-07-13T14:15:55;5.18;;;2.83;;
74523;SDS011;63074;44.696;10.358;2023-07-13T14:18:24;4.53;;;3.00;;
74523;SDS011;63074;44.696;10.358;2023-07-13T14:20:50;6.85;;;2.90;;
74523;SDS011;63074;44.696;10.358;2023-07-13T14:23:17;6.32;;;2.90;;
74523;SDS011;63074;44.696;10.358;2023-07-13T14:25:44;9.63;;;3.40;;
74523;SDS011;63074;44.696;10.358;2023-07-13T14:28:17;7.45;;;2.75;;
74523;SDS011;63074;44.696;10.358;2023-07-13T14:30:49;7.95;;;2.50;;
74523;SDS011;63074;44.696;10.358;2023-07-13T14:33:16;4.63;;;3.00;;
74523;SDS011;63074;44.696;10.358;2023-07-13T14:35:43;8.35;;;2.90;;
74523;SDS011;63074;44.696;10.358;2023-07-13T14:38:10;5.97;;;2.53;;
74523;SDS011;63074;44.696;10.358;2023-07-13T14:40:42;8.32;;;3.00;;
74523;SDS011;63074;44.696;10.358;2023-07-13T14:43:12;6.18;;;2.67;;
74523;SDS011;63074;44.696;10.358;2023-07-13T14:45:41;9.45;;;2.85;;
74523;SDS011;63074;44.696;10.358;2023-07-13T14:48:17;7.47;;;2.92;;
74523;SDS011;63074;44.696;10.358;2023-07-13T14:50:46;6.35;;;2.67;;
74523;SDS011;63074;44.696;10.358;2023-07-13T14:53:15;4.68;;;2.42;;
74523;SDS011;63074;44.696;10.358;2023-07-13T14:55:42;6.15;;;2.67;;
74523;SDS011;63074;44.696;10.358;2023-07-13T14:58:08;6.88;;;3.00;;
74523;SDS011;63074;44.696;10.358;2023-07-13T15:00:35;5.78;;;3.08;;
74523;SDS011;63074;44.696;10.358;2023-07-13T15:03:02;6.43;;;3.13;;
74523;SDS011;63074;44.696;10.358;2023-07-13T15:05:30;9.27;;;2.88;;
74523;SDS011;63074;44.696;10.358;2023-07-13T15:08:01;8.25;;;3.22;;
74523;SDS011;63074;44.696;10.358;2023-07-13T15:10:30;7.05;;;3.15;;
74523;SDS011;63074;44.696;10.358;2023-07-13T15:15:26;7.47;;;3.00;;
74523;SDS011;63074;44.696;10.358;2023-07-13T15:17:56;7.03;;;2.88;;
74523;SDS011;63074;44.696;10.358;2023-07-13T15:20:29;6.70;;;3.53;;
74523;SDS011;63074;44.696;10.358;2023-07-13T15:22:57;5.10;;;3.10;;
74523;SDS011;63074;44.696;10.358;2023-07-13T15:25:25;5.43;;;2.50;;
74523;SDS011;63074;44.696;10.358;2023-07-13T15:27:53;6.50;;;2.80;;
74523;SDS011;63074;44.696;10.358;2023-07-13T15:30:21;4.50;;;2.50;;
74523;SDS011;63074;44.696;10.358;2023-07-13T15:32:50;5.85;;;2.63;;
74523;SDS011;63074;44.696;10.358;2023-07-13T15:35:18;6.63;;;2.63;;
74523;SDS011;63074;44.696;10.358;2023-07-13T15:37:47;5.93;;;2.40;;
74523;SDS011;63074;44.696;10.358;2023-07-13T15:40:15;16.45;;;2.28;;
74523;SDS011;63074;44.696;10.358;2023-07-13T15:42:42;4.82;;;2.20;;
74523;SDS011;63074;44.696;10.358;2023-07-13T15:47:43;5.47;;;1.98;;
74523;SDS011;63074;44.696;10.358;2023-07-13T15:50:20;7.53;;;2.40;;
74523;SDS011;63074;44.696;10.358;2023-07-13T15:52:52;7.20;;;2.30;;
74523;SDS011;63074;44.696;10.358;2023-07-13T15:55:20;6.57;;;2.78;;
74523;SDS011;63074;44.696;10.358;2023-07-13T15:57:48;5.43;;;2.42;;
74523;SDS011;63074;44.696;10.358;2023-07-13T16:00:25;4.65;;;2.55;;
74523;SDS011;63074;44.696;10.358;2023-07-13T16:02:52;5.70;;;2.38;;
74523;SDS011;63074;44.696;10.358;2023-07-13T16:05:19;6.00;;;2.72;;
74523;SDS011;63074;44.696;10.358;2023-07-13T16:07:49;6.30;;;2.08;;
74523;SDS011;63074;44.696;10.358;2023-07-13T16:10:22;5.80;;;2.50;;
74523;SDS011;63074;44.696;10.358;2023-07-13T16:12:55;5.18;;;2.35;;